Annapolis, Washington
Current Conditions -  °F | °C
As of 4:15 PM on Thursday 18 Dec 2014 (Local Time) from KPWT Reporting Station
Overcast Overcast  
Wind Chill: 46°   Ceiling: 2200
Heat Index: 46°   Visibility: 4mi
Dew Point: 46°   Wind: 0mph
Humidity: 100%   Direction: NA
Pressure: 29.8"   Gusts: NA
Location:  47.5378°N, 122.589°W
Report Text: KPWT 190015Z AUTO 00000KT 4SM BKN022 BKN029 OVC039 08/08 A2980 RMK AO1 P0002
Loading
Personal Weather Stations






























Interactive Weather Map New forecast layout! Learn more

10-Day Weather Forecast

Advertisements
Track Severe Weather on mobile